Sutton, ND (58484)

10:23 AM CDT die 24o October, anno 2014 (GMT -0500)
Thurlow Farms | Change Station
CLOSE
Current Station
Personal Weather Stations
Location: Carrington, ND
Elevation: 1535 ft
Nearby Weather Stations

Elev 1535 ft 47.43 °N, 98.84 °W | Updated 1 minute ago

Serena
Serena
54.3 °F
Feels Like 54.3 °F
N
4.0
Ventus Variabilis Ventus from Aquilo
Gusts 6.0 mph

Hodie
High -- | Low -- °F
--% Chance of Precip.
Yesterday
High -- | Low -- °F
Precip. -- in
8:05 AM 6:29 PM
New, 1% visible
Pressio 29.84 in
Visibilitas 10.0 milia passuum
Clouds Serena
Frigus in quo Ros apparet 44 °F
Umor 67%
Rainfall 0.00 in
Snow Depth Not available.
UV 1 out of 12
Pollen 2.00 out of 12
Air Quality Not available.
Flu Activity Local Activity
METAR KJMS 241456Z AUTO 26003KT 10SM CLR 11/03 A2982 RMK AO2 SLP104 T01060033 51011

More Conditions Fewer Conditions

Pressio 29.84 in
Visibilitas 10.0 milia passuum
Clouds Serena
Frigus in quo Ros apparet 44 °F
Umor 67%
Rainfall 0.00 in
Snow Depth Not available.
UV 1 out of 12
Pollen 2.00 out of 12
Air Quality Not available.
Flu Activity Local Activity
METAR KJMS 241456Z AUTO 26003KT 10SM CLR 11/03 A2982 RMK AO2 SLP104 T01060033 51011

More Conditions Fewer Conditions

10-Day Weather Forecast

Almanac

Astronomy

Oct. 24, 2014 Rise Set
Actual Time 8:05 AM CDT 6:29 PM CDT
Civil Twilight 7:33 AM CDT 7:01 PM CDT
Nautical Twilight 6:58 AM CDT 7:36 PM CDT
Astronomical Twilight 6:22 AM CDT 8:12 PM CDT
Moon 8:48 AM CDT 7:07 PM CDT
Length Of Visible Light 11h 27m
Length of Day
10h 24m
Tomorrow will be 3m 11s shorter.
New, 1% of the Moon is Illuminated
Hodie
New
Oct 30
First Quarter
Nov 6
Full
Nov 14
Last Quarter
Nov 22
New

Today's Extremes

State Highs State Lows

Community

WunderPhotos

Upload Photos

1,764,588 photos uploaded!

WunderBlogs® & News

By Dr. Jeff Masters
Director of Meteorology, Weather Underground
By Kari Strenfel
Meteorologist, Weather Underground
By Christopher C. Burt
Weather Historian, Weather Underground
October 24, 2014
October 24, 2014
October 24, 2014

Nearby

Snow Depth

Station Depth Elevation
No new snow has been reported.

Earthquake Activity

City Distance Mag. Time & Date
No recent earthquake activity has been reported nearby.
Minimum magnitude displayed is 2.5.

Coastal Water Temperatures

Locus Calor
No Stations Reporting

Nearby Weather Stations